Time;durP1;ratioP1;P1;durP2;ratioP2;P2;SDS_P1;SDS_P2;PMS_P1;PMS_P2;Temp;Humidity;BMP_temperature;BMP_pressure;BME280_temperature;BME280_humidity;BME280_pressure;Samples;Min_cycle;Max_cycle;Signal;HPM_P1;HPM_P2
2020/12/29 00:00:43;;;;;;;7.00;3.38;;;4.20;99.90;;;;;;5047483;28;20022;-78
2020/12/29 00:03:08;;;;;;;8.07;3.75;;;4.20;99.90;;;;;;5047929;28;20067;-78
2020/12/29 00:05:37;;;;;;;7.78;3.92;;;4.30;99.90;;;;;;5030205;28;20084;-78
2020/12/29 00:08:02;;;;;;;11.50;4.13;;;4.10;99.90;;;;;;5047684;28;20048;-79
2020/12/29 00:10:28;;;;;;;8.63;3.58;;;4.10;99.90;;;;;;5030081;28;20029;-77
2020/12/29 00:12:53;;;;;;;6.32;3.67;;;4.10;99.90;;;;;;5029829;28;20082;-77
2020/12/29 00:15:19;;;;;;;5.93;3.15;;;4.10;99.90;;;;;;5047554;28;20077;-79
2020/12/29 00:17:45;;;;;;;4.93;2.67;;;4.20;99.90;;;;;;5029914;28;20029;-77
2020/12/29 00:20:10;;;;;;;7.78;3.80;;;4.10;99.90;;;;;;5029786;28;20034;-77
2020/12/29 00:22:36;;;;;;;5.38;3.67;;;4.10;99.90;;;;;;5047372;28;20036;-77
2020/12/29 00:25:03;;;;;;;7.38;2.42;;;4.10;99.90;;;;;;5047596;28;20420;-77
2020/12/29 00:27:29;;;;;;;10.45;3.05;;;4.10;99.90;;;;;;5029533;28;20029;-77
2020/12/29 00:29:54;;;;;;;9.20;3.75;;;4.10;99.90;;;;;;5047373;28;20030;-78
2020/12/29 00:32:20;;;;;;;9.25;3.00;;;4.20;99.90;;;;;;5029597;28;20025;-77
2020/12/29 00:34:47;;;;;;;8.23;3.55;;;4.10;99.90;;;;;;5029049;28;20117;-79
2020/12/29 00:37:13;;;;;;;8.98;4.18;;;4.10;99.90;;;;;;5047256;28;20021;-76
2020/12/29 00:39:39;;;;;;;6.57;3.58;;;4.10;99.90;;;;;;5029429;28;20401;-79
2020/12/29 00:42:04;;;;;;;7.55;3.45;;;4.00;99.90;;;;;;5046891;28;20057;-80
2020/12/29 00:44:30;;;;;;;7.35;3.25;;;4.10;99.90;;;;;;5047229;28;20063;-77
2020/12/29 00:46:56;;;;;;;7.07;3.25;;;4.10;99.90;;;;;;5029266;28;20132;-78
2020/12/29 00:49:21;;;;;;;8.32;3.75;;;4.10;99.90;;;;;;5028812;28;20025;-78
2020/12/29 00:51:47;;;;;;;8.32;4.50;;;4.10;99.90;;;;;;5046853;28;20077;-78
2020/12/29 00:54:12;;;;;;;6.32;3.17;;;4.10;99.90;;;;;;5046852;28;20025;-79
2020/12/29 00:56:38;;;;;;;9.40;3.78;;;4.00;99.90;;;;;;5046350;28;20026;-79
2020/12/29 00:59:04;;;;;;;5.55;3.28;;;4.00;99.90;;;;;;5047217;28;20025;-80
2020/12/29 01:01:29;;;;;;;8.27;3.85;;;3.90;99.90;;;;;;5046659;28;20025;-78
2020/12/29 01:03:55;;;;;;;10.75;2.95;;;4.00;99.90;;;;;;5046521;28;20061;-78
2020/12/29 01:06:27;;;;;;;7.30;3.80;;;4.00;99.90;;;;;;5028563;28;20036;-78
2020/12/29 01:08:53;;;;;;;5.63;3.03;;;4.00;99.90;;;;;;5046404;28;20025;-80
2020/12/29 01:11:19;;;;;;;7.57;3.85;;;4.10;99.90;;;;;;5028644;28;20107;-77
2020/12/29 01:13:45;;;;;;;7.93;3.63;;;4.10;99.90;;;;;;5046749;28;20053;-79
2020/12/29 01:16:11;;;;;;;4.72;2.90;;;4.10;99.90;;;;;;5028422;28;20450;-79
2020/12/29 01:18:37;;;;;;;7.47;3.08;;;4.10;99.90;;;;;;5046504;28;20014;-80
2020/12/29 01:21:04;;;;;;;9.05;3.03;;;4.10;99.90;;;;;;5046711;28;20041;-77
2020/12/29 01:23:29;;;;;;;7.53;3.55;;;4.10;99.90;;;;;;5028404;28;20041;-79
2020/12/29 01:25:55;;;;;;;5.43;3.20;;;4.20;99.90;;;;;;5046482;28;20044;-79
2020/12/29 01:28:20;;;;;;;11.85;4.45;;;4.10;99.90;;;;;;5028496;28;20030;-78
2020/12/29 01:30:46;;;;;;;7.00;3.72;;;4.10;99.90;;;;;;5028293;28;20026;-79
2020/12/29 01:33:12;;;;;;;7.80;3.47;;;4.10;99.90;;;;;;5028405;28;20032;-78
2020/12/29 01:35:37;;;;;;;9.02;3.63;;;4.20;99.90;;;;;;5028001;28;20130;-80
2020/12/29 01:38:06;;;;;;;10.23;3.63;;;4.10;99.90;;;;;;5028416;28;20032;-78
2020/12/29 01:40:32;;;;;;;5.75;3.20;;;4.10;99.90;;;;;;5028582;28;20025;-80
2020/12/29 01:42:58;;;;;;;11.75;3.67;;;4.10;99.90;;;;;;5028304;28;20097;-80
2020/12/29 01:45:24;;;;;;;7.97;3.85;;;4.10;99.90;;;;;;5045801;28;20029;-79
2020/12/29 01:47:51;;;;;;;8.65;4.30;;;4.10;99.90;;;;;;5028186;28;20036;-80
2020/12/29 01:50:19;;;;;;;9.68;4.43;;;4.10;99.90;;;;;;5045524;28;20041;-79
2020/12/29 01:52:53;;;;;;;5.90;3.08;;;4.10;99.90;;;;;;5028057;28;20101;-79
2020/12/29 01:55:19;;;;;;;6.90;3.53;;;4.10;99.90;;;;;;5028121;28;20032;-79
2020/12/29 01:57:44;;;;;;;10.35;3.35;;;4.10;99.90;;;;;;5027741;28;20048;-80
2020/12/29 02:00:12;;;;;;;8.63;3.53;;;4.10;99.90;;;;;;5027915;28;20414;-79
2020/12/29 02:02:39;;;;;;;8.57;3.92;;;4.10;99.90;;;;;;5045556;28;20036;-79
2020/12/29 02:05:05;;;;;;;8.05;4.15;;;4.20;99.90;;;;;;5027676;28;20025;-79
2020/12/29 02:07:31;;;;;;;4.80;2.75;;;4.10;99.90;;;;;;5027966;28;20038;-80
2020/12/29 02:09:58;;;;;;;11.32;4.25;;;4.10;99.90;;;;;;5027743;28;20033;-81
2020/12/29 02:12:31;;;;;;;5.85;3.03;;;4.10;99.90;;;;;;5045186;28;20141;-80
2020/12/29 02:14:58;;;;;;;6.72;3.03;;;4.00;99.90;;;;;;5028028;28;20036;-80
2020/12/29 02:17:24;;;;;;;7.65;2.88;;;4.00;99.90;;;;;;5027486;28;20034;-80
2020/12/29 02:19:50;;;;;;;4.55;2.83;;;3.90;99.90;;;;;;5026934;28;20105;-80
2020/12/29 02:22:24;;;;;;;4.93;2.85;;;4.00;99.90;;;;;;5045373;28;20037;-81
2020/12/29 02:25:02;;;;;;;6.15;3.13;;;3.90;99.90;;;;;;5027024;28;20059;-79
2020/12/29 02:27:31;;;;;;;4.38;2.45;;;3.90;99.90;;;;;;5027297;28;20059;-79
2020/12/29 02:29:57;;;;;;;4.13;2.35;;;3.90;99.90;;;;;;5027382;28;20025;-80
2020/12/29 02:32:24;;;;;;;4.07;2.33;;;3.80;99.90;;;;;;5027268;28;20029;-81
2020/12/29 02:34:50;;;;;;;4.75;2.20;;;3.80;99.90;;;;;;5044547;28;20113;-81
2020/12/29 02:37:17;;;;;;;4.57;2.45;;;3.80;99.90;;;;;;5045207;28;20090;-80
2020/12/29 02:39:48;;;;;;;5.35;2.85;;;3.80;99.90;;;;;;5027040;28;20055;-81
2020/12/29 02:42:14;;;;;;;6.00;2.78;;;3.70;99.90;;;;;;5027127;28;20037;-80
2020/12/29 02:44:39;;;;;;;3.70;2.00;;;3.70;99.90;;;;;;5027244;28;20026;-80
2020/12/29 02:47:05;;;;;;;4.85;2.50;;;3.70;99.90;;;;;;5026972;28;20068;-81
2020/12/29 02:49:33;;;;;;;5.82;2.47;;;3.60;99.90;;;;;;5026897;28;20093;-81
2020/12/29 02:51:59;;;;;;;4.50;2.50;;;3.60;99.90;;;;;;5027195;28;20036;-81
2020/12/29 02:54:25;;;;;;;4.65;1.95;;;3.50;99.90;;;;;;5026849;28;20031;-81
2020/12/29 02:56:51;;;;;;;5.07;2.50;;;3.60;99.90;;;;;;5044802;28;20049;-81
2020/12/29 02:59:17;;;;;;;5.45;2.25;;;3.50;99.90;;;;;;5037750;28;20041;-80
2020/12/29 03:01:42;;;;;;;5.10;2.55;;;3.50;99.90;;;;;;5043278;28;20026;-80
2020/12/29 03:04:08;;;;;;;6.72;2.58;;;3.60;99.90;;;;;;5026863;28;20018;-81
2020/12/29 03:06:34;;;;;;;4.38;2.60;;;3.60;99.90;;;;;;5027178;28;20059;-81
2020/12/29 03:08:59;;;;;;;5.78;2.47;;;3.60;99.90;;;;;;5044666;28;20048;-82
2020/12/29 03:11:26;;;;;;;6.15;3.13;;;3.60;99.90;;;;;;5027195;28;20025;-82
2020/12/29 03:13:53;;;;;;;6.13;2.97;;;3.50;99.90;;;;;;5044494;28;20036;-81
2020/12/29 03:16:19;;;;;;;6.38;3.00;;;3.50;99.90;;;;;;5026533;28;20041;-81
2020/12/29 03:18:44;;;;;;;5.22;2.55;;;3.50;99.90;;;;;;5026786;28;20025;-82
2020/12/29 03:21:10;;;;;;;5.75;3.47;;;3.60;99.90;;;;;;5026835;28;20462;-81
2020/12/29 03:23:36;;;;;;;5.68;3.13;;;3.60;99.90;;;;;;5026615;28;20101;-82
2020/12/29 03:26:01;;;;;;;3.25;2.00;;;3.60;99.90;;;;;;5027162;28;20026;-81
2020/12/29 03:28:27;;;;;;;3.58;2.10;;;3.50;99.90;;;;;;5026648;28;20029;-82
2020/12/29 03:30:53;;;;;;;10.20;3.22;;;3.50;99.90;;;;;;5028840;28;20044;-81
2020/12/29 03:33:18;;;;;;;4.45;2.10;;;3.40;99.90;;;;;;5030680;28;20026;-82
2020/12/29 03:35:44;;;;;;;11.18;3.38;;;3.40;99.90;;;;;;5030062;28;20123;-81
2020/12/29 03:38:09;;;;;;;6.38;2.80;;;3.40;99.90;;;;;;5030561;28;20033;-81
2020/12/29 03:40:35;;;;;;;6.10;2.42;;;3.40;99.90;;;;;;5030639;28;20084;-82
2020/12/29 03:43:00;;;;;;;6.68;3.40;;;3.40;99.90;;;;;;5029989;28;20037;-81
2020/12/29 03:45:26;;;;;;;4.70;2.97;;;3.40;99.90;;;;;;5030547;28;20029;-82
2020/12/29 03:47:52;;;;;;;6.78;3.35;;;3.40;99.90;;;;;;5030555;28;20040;-81
2020/12/29 03:50:17;;;;;;;4.95;3.28;;;3.40;99.90;;;;;;5029898;28;20030;-80
2020/12/29 03:52:43;;;;;;;6.57;3.38;;;3.40;99.90;;;;;;5030459;28;20025;-80
2020/12/29 03:55:08;;;;;;;5.05;2.95;;;3.40;99.90;;;;;;5030247;28;20033;-82
2020/12/29 03:57:34;;;;;;;5.63;2.95;;;3.40;99.90;;;;;;5030125;28;20045;-82
2020/12/29 03:59:59;;;;;;;6.47;3.38;;;3.50;99.90;;;;;;5030081;28;20025;-81
2020/12/29 04:02:25;;;;;;;4.68;2.40;;;3.40;99.90;;;;;;5029754;28;20042;-82
2020/12/29 04:04:51;;;;;;;6.18;3.15;;;3.50;99.90;;;;;;5030038;28;20052;-81
2020/12/29 04:07:16;;;;;;;5.32;3.13;;;3.40;99.90;;;;;;5030103;28;20033;-82
2020/12/29 04:09:42;;;;;;;7.03;3.42;;;3.40;99.90;;;;;;5029502;28;20022;-82
2020/12/29 04:12:08;;;;;;;6.15;2.97;;;3.40;99.90;;;;;;5029950;28;20473;-82
2020/12/29 04:14:33;;;;;;;6.00;3.53;;;3.40;99.90;;;;;;5029985;28;20034;-81
2020/12/29 04:16:59;;;;;;;3.65;2.65;;;3.50;99.90;;;;;;5039086;28;20029;-82
2020/12/29 04:19:24;;;;;;;7.32;3.60;;;3.40;99.90;;;;;;5029958;28;20025;-81
2020/12/29 04:21:50;;;;;;;6.63;3.42;;;3.40;99.90;;;;;;5029403;28;20041;-82
2020/12/29 04:24:15;;;;;;;7.32;3.47;;;3.50;99.90;;;;;;5047265;28;20120;-82
2020/12/29 04:26:41;;;;;;;6.38;3.83;;;3.40;99.90;;;;;;5029506;28;20093;-83
2020/12/29 04:29:07;;;;;;;4.75;3.13;;;3.40;99.90;;;;;;5029494;28;20025;-83
2020/12/29 04:31:32;;;;;;;4.95;3.25;;;3.40;99.90;;;;;;5029433;28;20029;-82
2020/12/29 04:33:58;;;;;;;6.55;3.53;;;3.40;99.90;;;;;;5029515;28;20025;-82
2020/12/29 04:36:24;;;;;;;5.40;3.22;;;3.40;99.90;;;;;;5029002;28;20050;-82
2020/12/29 04:38:49;;;;;;;8.98;3.35;;;3.40;99.90;;;;;;5029509;28;20433;-82
2020/12/29 04:41:16;;;;;;;6.55;2.85;;;3.50;99.90;;;;;;5028455;28;20128;-82
2020/12/29 04:43:42;;;;;;;5.55;3.33;;;3.60;99.90;;;;;;5028720;28;20042;-81
2020/12/29 04:46:08;;;;;;;4.15;2.33;;;3.50;99.90;;;;;;5029299;28;20021;-83
2020/12/29 04:48:33;;;;;;;7.13;3.20;;;3.50;99.90;;;;;;5029314;28;20089;-83
2020/12/29 04:51:08;;;;;;;5.75;3.00;;;3.50;99.90;;;;;;5028551;28;20034;-82
2020/12/29 04:53:35;;;;;;;5.43;3.00;;;3.50;99.90;;;;;;5029663;28;20032;-83
2020/12/29 04:56:08;;;;;;;4.97;2.85;;;3.50;99.90;;;;;;5028937;28;20025;-83
2020/12/29 04:58:35;;;;;;;6.80;3.70;;;3.50;99.90;;;;;;5031115;28;20033;-83
2020/12/29 05:01:08;;;;;;;8.95;4.35;;;3.50;99.90;;;;;;5047190;28;20033;-81
2020/12/29 05:03:42;;;;;;;7.32;3.83;;;3.50;99.90;;;;;;5028906;28;20068;-83
2020/12/29 05:06:08;;;;;;;6.38;3.63;;;3.50;99.90;;;;;;5029017;28;20041;-82
2020/12/29 05:08:34;;;;;;;5.50;3.17;;;3.50;99.90;;;;;;5029491;28;20089;-83
2020/12/29 05:10:59;;;;;;;6.07;3.38;;;3.50;99.90;;;;;;5028724;28;20033;-83
2020/12/29 05:13:25;;;;;;;7.43;3.05;;;3.50;99.90;;;;;;5028745;28;20044;-83
2020/12/29 05:15:50;;;;;;;10.73;4.03;;;3.50;99.90;;;;;;5028792;28;20529;-82
2020/12/29 05:18:16;;;;;;;7.00;3.50;;;3.50;99.90;;;;;;5028481;28;20029;-81
2020/12/29 05:20:43;;;;;;;6.97;3.13;;;3.50;99.90;;;;;;5028629;28;20116;-84
2020/12/29 05:23:09;;;;;;;7.15;3.67;;;3.50;99.90;;;;;;5028470;28;20056;-83
2020/12/29 05:25:34;;;;;;;7.35;2.70;;;3.50;99.90;;;;;;5028484;28;20029;-81
2020/12/29 05:28:00;;;;;;;6.63;3.72;;;3.50;99.90;;;;;;5046568;28;20038;-82
2020/12/29 05:30:27;;;;;;;6.00;3.28;;;3.50;99.90;;;;;;5028736;28;20024;-84
2020/12/29 05:32:53;;;;;;;7.03;3.47;;;3.50;99.90;;;;;;5028189;28;20464;-82
2020/12/29 05:35:19;;;;;;;9.38;4.00;;;3.50;99.90;;;;;;5045927;28;20060;-82
2020/12/29 05:37:45;;;;;;;9.48;3.95;;;3.50;99.90;;;;;;5028278;28;20076;-81
2020/12/29 05:40:28;;;;;;;4.85;2.75;;;3.60;99.90;;;;;;5028009;28;20496;-83
2020/12/29 05:42:59;;;;;;;5.95;3.03;;;3.60;99.90;;;;;;5028280;28;20045;-80
2020/12/29 05:45:30;;;;;;;6.63;4.35;;;3.60;99.90;;;;;;5027829;28;20022;-82
2020/12/29 05:47:57;;;;;;;5.47;3.58;;;3.60;99.90;;;;;;5028171;28;20053;-84
2020/12/29 05:50:23;;;;;;;9.60;4.20;;;3.60;99.90;;;;;;5028182;28;20029;-83
2020/12/29 05:52:54;;;;;;;5.60;3.25;;;3.60;99.90;;;;;;5027262;28;20473;-81
2020/12/29 05:55:21;;;;;;;11.35;4.00;;;3.60;99.90;;;;;;5045680;28;20029;-83
2020/12/29 05:58:05;;;;;;;6.53;3.95;;;3.60;99.90;;;;;;5028200;28;20033;-82
2020/12/29 06:00:31;;;;;;;9.95;4.55;;;3.50;99.90;;;;;;5045443;28;20045;-84
2020/12/29 06:02:59;;;;;;;8.38;3.67;;;3.50;99.90;;;;;;5045804;28;20041;-82
2020/12/29 06:05:25;;;;;;;8.43;3.92;;;3.50;99.90;;;;;;5027626;28;20037;-83
2020/12/29 06:08:09;;;;;;;9.75;4.10;;;3.60;99.90;;;;;;5027590;28;20030;-83
2020/12/29 06:10:36;;;;;;;8.93;3.90;;;3.60;99.90;;;;;;5027588;28;20035;-82
2020/12/29 06:13:06;;;;;;;7.47;4.03;;;3.60;99.90;;;;;;5027538;28;20025;-82
2020/12/29 06:15:34;;;;;;;12.40;4.97;;;3.70;99.90;;;;;;5027618;28;20029;-84
2020/12/29 06:18:04;;;;;;;8.15;4.45;;;3.70;99.90;;;;;;5027574;28;20552;-82
2020/12/29 06:20:42;;;;;;;6.38;3.35;;;3.60;99.90;;;;;;5027195;28;20056;-81
2020/12/29 06:23:10;;;;;;;11.63;5.30;;;3.70;99.90;;;;;;5060724;28;20124;-84
2020/12/29 06:25:37;;;;;;;6.50;4.10;;;3.60;99.90;;;;;;5027731;28;20025;-83
2020/12/29 06:28:04;;;;;;;29.95;5.93;;;3.70;99.90;;;;;;5045353;28;20482;-82
2020/12/29 06:30:32;;;;;;;10.95;4.55;;;3.70;99.90;;;;;;5027459;28;20074;-82
2020/12/29 06:32:59;;;;;;;11.82;5.10;;;3.60;99.90;;;;;;5060536;28;20032;-81
2020/12/29 06:35:25;;;;;;;11.68;4.50;;;3.60;99.90;;;;;;5026671;28;20050;-83
2020/12/29 06:37:56;;;;;;;12.63;6.00;;;3.60;99.90;;;;;;5060636;28;20033;-83
2020/12/29 06:40:22;;;;;;;13.02;5.63;;;3.50;99.90;;;;;;5044949;28;20060;-81
2020/12/29 06:42:48;;;;;;;15.85;6.47;;;3.50;99.90;;;;;;5027394;28;20072;-82
2020/12/29 06:45:14;;;;;;;57.22;7.10;;;3.40;99.90;;;;;;5060418;28;20055;-84
2020/12/29 06:47:43;;;;;;;9.57;5.15;;;3.40;99.90;;;;;;5026233;28;20211;-84
2020/12/29 06:50:48;;;;;;;43.15;5.18;;;3.30;99.90;;;;;;5026772;28;20030;-85
2020/12/29 06:53:18;;;;;;;17.58;6.13;;;3.30;99.90;;;;;;5006998;28;20099;-85
2020/12/29 06:55:47;;;;;;;11.95;5.95;;;3.30;99.90;;;;;;5026643;28;20132;-86
2020/12/29 06:58:29;;;;;;;61.10;6.13;;;3.40;99.90;;;;;;5027327;28;20053;-86
2020/12/29 07:01:20;;;;;;;8.25;4.45;;;3.20;99.90;;;;;;5060250;28;20045;-86
2020/12/29 07:03:47;;;;;;;5.18;2.97;;;3.20;99.90;;;;;;5026381;28;20038;-81
2020/12/29 07:06:13;;;;;;;14.27;4.72;;;3.20;99.90;;;;;;5029660;28;20026;-80
2020/12/29 07:08:39;;;;;;;8.70;4.43;;;3.20;99.90;;;;;;5030585;28;20109;-80
2020/12/29 07:11:18;;;;;;;9.20;4.97;;;3.20;99.90;;;;;;5030857;28;20029;-80
2020/12/29 07:13:51;;;;;;;13.77;5.45;;;3.20;99.90;;;;;;5030517;28;20029;-78
2020/12/29 07:16:24;;;;;;;8.73;4.07;;;3.20;99.90;;;;;;5048572;28;20025;-80
2020/12/29 07:18:51;;;;;;;11.57;5.22;;;3.20;99.90;;;;;;5048753;28;20095;-80
2020/12/29 07:21:25;;;;;;;11.98;4.65;;;3.20;99.90;;;;;;5048487;28;20060;-81
2020/12/29 07:23:52;;;;;;;8.30;4.75;;;3.20;99.90;;;;;;5030930;28;20137;-81
2020/12/29 07:26:19;;;;;;;11.55;5.03;;;3.20;99.90;;;;;;5031924;28;20033;-81
2020/12/29 07:28:49;;;;;;;7.07;3.53;;;3.20;99.90;;;;;;5031038;28;20064;-81
2020/12/29 07:31:15;;;;;;;9.85;5.15;;;3.20;99.90;;;;;;5030890;28;20096;-81
2020/12/29 07:33:54;;;;;;;8.32;4.78;;;3.20;99.90;;;;;;5048286;28;20102;-81
2020/12/29 07:36:21;;;;;;;13.27;5.80;;;3.30;99.90;;;;;;5048633;28;20053;-79
2020/12/29 07:38:51;;;;;;;13.05;5.82;;;3.30;99.90;;;;;;5064162;28;20028;-81
2020/12/29 07:41:19;;;;;;;8.82;4.85;;;3.30;99.90;;;;;;5031140;28;20035;-81
2020/12/29 07:43:46;;;;;;;9.20;5.20;;;3.30;99.90;;;;;;5064229;28;20111;-82
2020/12/29 07:46:12;;;;;;;41.63;5.75;;;3.30;99.90;;;;;;5033847;28;20030;-81
2020/12/29 07:48:39;;;;;;;11.00;6.00;;;3.40;99.90;;;;;;5035003;28;20036;-81
2020/12/29 07:51:06;;;;;;;11.90;5.30;;;3.40;99.90;;;;;;5031091;28;20037;-80
2020/12/29 07:53:32;;;;;;;12.95;6.18;;;3.40;99.90;;;;;;5031025;28;20029;-80
2020/12/29 07:55:58;;;;;;;13.40;6.18;;;3.40;99.90;;;;;;5029837;28;20067;-80
2020/12/29 07:58:24;;;;;;;14.13;5.60;;;3.40;99.90;;;;;;5047978;28;20026;-80
2020/12/29 08:00:50;;;;;;;13.70;5.55;;;3.50;99.90;;;;;;5063374;28;20056;-80
2020/12/29 08:03:18;;;;;;;15.63;6.40;;;3.50;99.90;;;;;;5030318;28;20048;-80
2020/12/29 08:05:45;;;;;;;16.48;5.97;;;3.50;99.90;;;;;;5048394;28;20025;-80
2020/12/29 08:08:14;;;;;;;17.85;6.15;;;3.60;99.90;;;;;;5030527;28;20033;-80
2020/12/29 08:10:43;;;;;;;15.50;7.68;;;3.60;99.90;;;;;;5029879;28;20091;-80
2020/12/29 08:13:11;;;;;;;14.93;6.47;;;3.60;99.90;;;;;;5048711;28;20108;-80
2020/12/29 08:15:38;;;;;;;10.82;6.18;;;3.60;99.90;;;;;;5030251;28;20093;-81
2020/12/29 08:18:05;;;;;;;13.57;6.85;;;3.60;99.90;;;;;;5047968;28;20030;-80
2020/12/29 08:20:31;;;;;;;13.80;7.35;;;3.70;99.90;;;;;;5048345;28;20049;-80
2020/12/29 08:23:04;;;;;;;12.75;6.78;;;3.70;99.90;;;;;;5047959;28;20045;-81
2020/12/29 08:25:30;;;;;;;14.48;7.40;;;3.70;99.90;;;;;;5029501;28;20025;-80
2020/12/29 08:28:02;;;;;;;11.90;5.95;;;3.70;99.90;;;;;;5047132;28;20036;-79
2020/12/29 08:30:29;;;;;;;18.83;7.65;;;3.80;99.90;;;;;;5047666;28;20068;-79
2020/12/29 08:32:57;;;;;;;17.42;7.72;;;3.80;99.90;;;;;;5046851;28;20033;-78
2020/12/29 08:35:23;;;;;;;17.50;7.55;;;3.80;99.90;;;;;;5046683;28;20057;-78
2020/12/29 08:38:31;;;;;;;12.90;6.00;;;3.80;99.90;;;;;;5046915;28;20108;-80
2020/12/29 08:41:05;;;;;;;15.35;6.78;;;3.80;99.90;;;;;;5035690;28;20049;-79
2020/12/29 08:43:50;;;;;;;13.02;7.05;;;3.80;99.90;;;;;;5065429;28;20087;-79
2020/12/29 08:46:17;;;;;;;;;;;3.80;99.90;;;;;;5067430;28;20025;-79
2020/12/29 08:48:59;;;;;;;12.90;5.95;;;3.70;99.90;;;;;;5068572;28;19905;-79
2020/12/29 08:51:27;;;;;;;15.05;7.28;;;3.70;99.90;;;;;;5049750;28;20029;-80
2020/12/29 08:53:53;;;;;;;19.52;7.45;;;3.70;99.90;;;;;;5066736;28;20047;-79
2020/12/29 08:56:26;;;;;;;17.35;7.05;;;3.70;99.90;;;;;;5048931;28;20047;-79
2020/12/29 08:58:53;;;;;;;14.57;7.00;;;3.80;99.90;;;;;;5048818;28;20029;-78
2020/12/29 09:01:40;;;;;;;18.38;8.23;;;3.70;99.90;;;;;;5048771;28;20396;-80
2020/12/29 09:04:26;;;;;;;13.02;8.10;;;3.80;99.90;;;;;;5049530;28;20134;-77
2020/12/29 09:07:00;;;;;;;21.48;6.85;;;3.80;99.90;;;;;;5066206;28;20032;-78
2020/12/29 09:09:26;;;;;;;14.85;6.95;;;3.80;99.90;;;;;;5064893;28;20056;-78
2020/12/29 09:12:05;;;;;;;15.50;8.48;;;3.80;99.90;;;;;;5046544;28;20036;-77
2020/12/29 09:14:31;;;;;;;17.30;8.70;;;3.80;99.90;;;;;;5065813;28;20354;-78
2020/12/29 09:17:07;;;;;;;14.25;7.90;;;3.80;99.90;;;;;;5065722;28;20103;-78
2020/12/29 09:19:33;;;;;;;38.42;8.98;;;3.90;99.90;;;;;;5065819;28;20090;-77
2020/12/29 09:22:10;;;;;;;18.27;8.85;;;3.90;99.90;;;;;;5047260;28;20028;-76
2020/12/29 09:24:37;;;;;;;12.82;7.47;;;4.10;99.90;;;;;;5047230;28;20025;-78
2020/12/29 09:27:03;;;;;;;18.27;9.02;;;4.00;99.90;;;;;;5047661;28;20053;-76
2020/12/29 09:29:33;;;;;;;18.85;8.98;;;4.10;99.90;;;;;;5064500;28;20029;-76
2020/12/29 09:32:01;;;;;;;20.77;8.93;;;4.20;99.90;;;;;;5046831;28;20040;-77
2020/12/29 09:34:26;;;;;;;18.52;7.70;;;4.20;99.90;;;;;;5065227;28;20485;-77
2020/12/29 09:36:52;;;;;;;13.73;6.43;;;4.20;99.90;;;;;;5065378;28;20029;-78
2020/12/29 09:39:18;;;;;;;19.55;9.00;;;4.40;99.90;;;;;;5047783;28;20115;-75
2020/12/29 09:41:43;;;;;;;13.55;7.28;;;4.30;99.90;;;;;;5065653;28;20036;-76
2020/12/29 09:44:09;;;;;;;17.02;8.35;;;4.30;99.90;;;;;;5065946;28;20078;-76
2020/12/29 09:46:38;;;;;;;16.45;7.60;;;4.40;99.90;;;;;;5048015;28;20070;-76
2020/12/29 09:49:04;;;;;;;16.50;8.25;;;4.40;99.90;;;;;;5065630;28;20025;-76
2020/12/29 09:51:30;;;;;;;16.02;9.10;;;4.50;99.90;;;;;;5047819;28;20036;-76
2020/12/29 09:53:56;;;;;;;15.57;7.80;;;4.60;99.90;;;;;;5065825;28;20021;-75
2020/12/29 09:56:22;;;;;;;15.45;8.00;;;4.70;99.90;;;;;;5065364;28;20025;-75
2020/12/29 09:58:48;;;;;;;14.65;8.00;;;4.70;99.90;;;;;;5065832;28;20404;-75
2020/12/29 10:01:14;;;;;;;18.98;7.82;;;4.80;99.90;;;;;;5065468;28;20028;-76
2020/12/29 10:03:39;;;;;;;15.95;7.32;;;5.00;99.90;;;;;;5065146;28;20037;-76
2020/12/29 10:06:05;;;;;;;16.92;6.60;;;5.10;99.90;;;;;;5065856;28;20017;-75
2020/12/29 10:08:31;;;;;;;13.23;6.50;;;5.30;99.90;;;;;;5065513;28;20120;-75
2020/12/29 10:10:57;;;;;;;11.00;6.53;;;5.20;99.90;;;;;;5065140;28;20426;-75
2020/12/29 10:13:23;;;;;;;10.27;6.18;;;5.10;99.90;;;;;;5047595;28;20059;-76
2020/12/29 10:15:48;;;;;;;16.48;5.80;;;5.00;99.90;;;;;;5064942;28;20029;-76
2020/12/29 10:18:14;;;;;;;7.78;5.15;;;5.00;99.90;;;;;;5047035;28;20032;-76
2020/12/29 10:20:39;;;;;;;11.18;6.20;;;4.90;99.90;;;;;;5064786;28;20362;-76
2020/12/29 10:23:05;;;;;;;11.20;5.93;;;4.90;99.90;;;;;;5065413;28;20040;-75
2020/12/29 10:25:32;;;;;;;15.05;7.22;;;4.80;99.90;;;;;;5046929;28;20033;-74
2020/12/29 10:27:57;;;;;;;15.25;6.55;;;4.90;99.90;;;;;;5065363;28;20090;-75
2020/12/29 10:30:23;;;;;;;14.13;7.32;;;4.70;99.90;;;;;;5064777;28;20055;-75
2020/12/29 10:32:48;;;;;;;16.73;7.13;;;4.70;99.90;;;;;;5046844;28;20029;-76
2020/12/29 10:35:14;;;;;;;15.60;7.13;;;4.70;99.90;;;;;;5064176;28;20057;-76
2020/12/29 10:37:40;;;;;;;13.93;5.88;;;4.70;99.90;;;;;;5046891;28;20397;-76
2020/12/29 10:40:06;;;;;;;25.70;10.63;;;4.60;99.90;;;;;;5065084;28;20064;-76
2020/12/29 10:42:32;;;;;;;14.35;6.53;;;4.60;99.90;;;;;;5065184;28;20040;-75
2020/12/29 10:44:58;;;;;;;14.18;7.22;;;4.60;99.90;;;;;;5064647;28;20021;-75
2020/12/29 10:47:24;;;;;;;17.20;7.43;;;4.60;99.90;;;;;;5064627;28;20025;-75
2020/12/29 10:49:49;;;;;;;11.35;6.28;;;4.50;99.90;;;;;;5064613;28;20051;-75
2020/12/29 10:52:15;;;;;;;9.00;4.00;;;4.50;99.90;;;;;;5064471;28;20107;-75
2020/12/29 10:54:40;;;;;;;14.82;6.47;;;4.50;99.90;;;;;;5064748;28;20032;-75
2020/12/29 10:57:06;;;;;;;9.02;5.55;;;4.50;99.90;;;;;;5046829;28;20115;-77
2020/12/29 10:59:32;;;;;;;17.88;7.88;;;4.50;99.90;;;;;;5064851;28;20035;-75
2020/12/29 11:01:58;;;;;;;10.55;5.50;;;4.50;99.90;;;;;;5046717;28;20029;-74
2020/12/29 11:04:24;;;;;;;10.10;5.70;;;4.40;99.90;;;;;;5064496;28;20085;-75
2020/12/29 11:06:50;;;;;;;10.02;5.80;;;4.40;99.90;;;;;;5064516;28;20036;-75
2020/12/29 11:09:16;;;;;;;9.38;6.15;;;4.40;99.90;;;;;;5064907;28;20029;-76
2020/12/29 11:11:42;;;;;;;13.45;7.32;;;4.40;99.90;;;;;;5064824;28;20025;-76
2020/12/29 11:14:08;;;;;;;20.33;6.97;;;4.40;99.90;;;;;;5064510;28;20092;-76
2020/12/29 11:16:33;;;;;;;15.27;7.00;;;4.40;99.90;;;;;;5064681;28;20025;-75
2020/12/29 11:18:59;;;;;;;17.05;7.13;;;4.40;99.90;;;;;;5064629;28;20047;-77
2020/12/29 11:21:25;;;;;;;12.35;6.35;;;4.40;99.90;;;;;;5064015;28;20044;-76
2020/12/29 11:23:50;;;;;;;11.07;6.35;;;4.40;99.90;;;;;;5062104;28;20048;-76
2020/12/29 11:26:17;;;;;;;10.02;5.80;;;4.40;99.90;;;;;;5045797;28;20029;-75
2020/12/29 11:28:44;;;;;;;13.45;7.03;;;4.40;99.90;;;;;;5027164;28;20037;-76
2020/12/29 11:31:14;;;;;;;15.35;6.82;;;4.50;99.90;;;;;;5024997;28;20025;-76
2020/12/29 11:33:40;;;;;;;13.15;6.80;;;4.50;99.90;;;;;;5024060;28;20025;-75
2020/12/29 11:36:08;;;;;;;13.43;6.78;;;4.50;99.90;;;;;;5046456;28;20061;-76
2020/12/29 11:38:33;;;;;;;15.50;7.65;;;4.50;99.90;;;;;;5063416;28;20459;-76
2020/12/29 11:40:59;;;;;;;15.88;7.80;;;4.50;99.90;;;;;;5045073;28;20051;-74
2020/12/29 11:43:25;;;;;;;12.10;6.90;;;4.50;99.90;;;;;;5063376;28;20069;-74
2020/12/29 11:45:50;;;;;;;16.17;8.73;;;4.60;99.90;;;;;;5062770;28;20037;-75
2020/12/29 11:48:16;;;;;;;17.00;8.18;;;4.60;99.90;;;;;;5044922;28;20031;-74
2020/12/29 11:50:42;;;;;;;14.35;7.63;;;4.60;99.90;;;;;;5045446;28;20125;-75
2020/12/29 11:53:07;;;;;;;14.48;7.35;;;4.60;99.90;;;;;;5049123;28;20364;-76
2020/12/29 11:55:33;;;;;;;12.30;6.85;;;4.70;99.90;;;;;;5066657;28;20032;-75
2020/12/29 11:57:59;;;;;;;15.68;8.25;;;4.70;99.90;;;;;;5066894;28;20025;-74
2020/12/29 12:00:24;;;;;;;20.10;8.93;;;4.70;99.90;;;;;;5066912;28;20025;-75
2020/12/29 12:02:50;;;;;;;13.30;7.15;;;4.70;99.90;;;;;;5048416;28;20052;-75
2020/12/29 12:05:16;;;;;;;17.80;7.60;;;4.80;99.90;;;;;;5066640;28;20040;-73
2020/12/29 12:07:41;;;;;;;21.15;8.32;;;4.70;99.90;;;;;;5048763;28;20056;-76
2020/12/29 12:10:08;;;;;;;17.92;7.80;;;4.80;99.90;;;;;;5048703;28;20021;-77
2020/12/29 12:12:38;;;;;;;12.07;6.78;;;4.70;99.90;;;;;;5048912;28;20078;-74
2020/12/29 12:15:05;;;;;;;12.63;7.47;;;4.80;99.90;;;;;;5066518;28;20025;-75
2020/12/29 12:17:30;;;;;;;14.80;7.43;;;4.90;99.90;;;;;;5048719;28;20064;-75
2020/12/29 12:19:56;;;;;;;17.20;8.88;;;4.80;99.90;;;;;;5066548;28;20029;-74
2020/12/29 12:22:21;;;;;;;13.57;6.95;;;4.80;99.90;;;;;;5066217;28;20132;-75
2020/12/29 12:24:47;;;;;;;15.50;7.20;;;4.80;99.90;;;;;;5066192;28;20021;-74
2020/12/29 12:27:13;;;;;;;12.82;7.30;;;4.80;99.90;;;;;;5066395;28;20029;-74
2020/12/29 12:29:38;;;;;;;11.48;6.75;;;4.80;99.90;;;;;;5048166;28;20053;-75
2020/12/29 12:32:04;;;;;;;13.68;6.45;;;4.90;99.90;;;;;;5066562;28;20126;-73
2020/12/29 12:34:30;;;;;;;10.73;5.50;;;4.80;99.90;;;;;;5065859;28;20025;-75
2020/12/29 12:36:55;;;;;;;13.30;6.88;;;4.80;99.90;;;;;;5066137;28;20032;-75
2020/12/29 12:39:21;;;;;;;13.07;6.20;;;4.80;99.90;;;;;;5048386;28;20017;-75
2020/12/29 12:41:47;;;;;;;12.05;6.72;;;4.80;99.90;;;;;;5065832;28;20469;-77
2020/12/29 12:44:13;;;;;;;10.13;5.38;;;4.90;99.90;;;;;;5038067;28;20026;-75
2020/12/29 12:46:42;;;;;;;15.15;6.88;;;4.80;99.90;;;;;;5061402;28;20034;-76
2020/12/29 12:49:08;;;;;;;11.88;5.55;;;4.80;99.90;;;;;;5046020;28;20095;-78
2020/12/29 12:51:36;;;;;;;11.38;6.43;;;4.80;99.90;;;;;;5027538;28;20030;-77
2020/12/29 12:54:01;;;;;;;9.00;5.57;;;4.80;99.90;;;;;;5028093;28;20052;-77